createdAt,value
2019-04-23T00:00:03.701Z,0.00
2019-04-23T00:01:07.897Z,0.00
2019-04-23T00:01:59.781Z,0.00
2019-04-23T00:02:55.784Z,0.00
2019-04-23T00:03:52.102Z,0.00
2019-04-23T00:04:57.348Z,0.00
2019-04-23T00:05:55.161Z,0.00
2019-04-23T00:07:15.721Z,0.00
2019-04-23T00:07:56.114Z,0.00
2019-04-23T00:08:59.184Z,0.00
2019-04-23T00:10:01.154Z,0.00
2019-04-23T00:10:58.497Z,0.00
2019-04-23T00:11:55.171Z,0.00
2019-04-23T00:12:54.203Z,0.00
2019-04-23T00:14:02.812Z,0.00
2019-04-23T00:15:05.146Z,0.00
2019-04-23T00:15:58.635Z,0.00
2019-04-23T00:17:14.973Z,0.00
2019-04-23T00:17:57.240Z,0.00
2019-04-23T00:18:49.488Z,0.00
2019-04-23T00:19:55.641Z,0.00
2019-04-23T00:20:57.705Z,0.00
2019-04-23T00:21:53.528Z,0.00
2019-04-23T00:23:00.158Z,0.00
2019-04-23T00:24:03.107Z,0.00
2019-04-23T00:26:08.080Z,0.00
2019-04-23T00:27:01.963Z,0.00
2019-04-23T00:28:01.814Z,0.00
2019-04-23T00:29:00.997Z,0.00
2019-04-23T00:29:56.427Z,0.00
2019-04-23T00:31:13.682Z,0.00
2019-04-23T00:31:50.802Z,0.00
2019-04-23T00:33:01.050Z,0.00
2019-04-23T00:33:57.816Z,0.00
2019-04-23T00:35:02.486Z,0.00
2019-04-23T00:36:21.184Z,0.00
2019-04-23T00:37:01.558Z,0.00
2019-04-23T00:37:54.960Z,0.00
2019-04-23T00:38:51.291Z,0.00
2019-04-23T00:39:52.424Z,0.00
2019-04-23T00:42:04.994Z,0.00
2019-04-23T00:42:53.376Z,0.00
2019-04-23T00:44:12.295Z,0.00
2019-04-23T00:45:21.285Z,0.00
2019-04-23T00:46:02.332Z,0.00
2019-04-23T00:46:55.762Z,0.00
2019-04-23T00:49:00.737Z,0.00
2019-04-23T00:49:58.569Z,0.00
2019-04-23T00:51:02.959Z,0.00
2019-04-23T00:52:00.742Z,0.00
2019-04-23T00:53:01.528Z,0.00
2019-04-23T00:53:55.062Z,0.00
2019-04-23T00:54:57.012Z,0.00
2019-04-23T00:56:08.986Z,0.00
2019-04-23T00:57:58.116Z,0.00
2019-04-23T00:58:55.003Z,0.00
2019-04-23T01:00:02.027Z,0.00
2019-04-23T01:00:52.695Z,0.00
2019-04-23T01:02:13.292Z,0.00
2019-04-23T01:03:02.994Z,0.00
2019-04-23T01:03:54.803Z,0.00
2019-04-23T01:05:01.275Z,0.00
2019-04-23T01:05:52.401Z,0.00
2019-04-23T01:06:58.391Z,0.00
2019-04-23T01:07:50.127Z,0.00
2019-04-23T01:08:53.210Z,0.00
2019-04-23T01:10:59.903Z,0.00
2019-04-23T01:11:48.213Z,0.00
2019-04-23T01:15:00.028Z,0.00
2019-04-23T01:15:57.711Z,0.00
2019-04-23T01:16:52.976Z,0.00
2019-04-23T01:17:53.375Z,0.00
2019-04-23T01:19:54.806Z,0.00
2019-04-23T01:20:52.931Z,0.00
2019-04-23T01:21:32.713Z,0.00
2019-04-23T01:22:31.741Z,0.00
2019-04-23T01:23:41.824Z,0.00
2019-04-23T01:24:36.337Z,0.00
2019-04-23T01:25:42.650Z,0.00
2019-04-23T01:27:01.726Z,0.00
2019-04-23T01:27:55.855Z,0.00
2019-04-23T01:29:01.617Z,0.00
2019-04-23T01:30:00.882Z,0.00
2019-04-23T01:31:05.274Z,0.00
2019-04-23T01:31:58.547Z,0.00
2019-04-23T01:32:59.414Z,0.00
2019-04-23T01:33:55.419Z,0.00
2019-04-23T01:35:06.585Z,0.00
2019-04-23T01:36:12.452Z,0.00
2019-04-23T01:36:51.656Z,0.00
2019-04-23T01:38:11.907Z,0.00
2019-04-23T01:39:00.293Z,0.00
2019-04-23T01:39:57.702Z,0.00
2019-04-23T01:40:58.039Z,0.00
2019-04-23T01:42:06.762Z,0.00
2019-04-23T01:43:55.207Z,0.00
2019-04-23T01:45:03.380Z,0.00
2019-04-23T01:45:58.943Z,0.00
2019-04-23T01:48:00.068Z,0.00
2019-04-23T01:48:58.321Z,0.00
2019-04-23T01:50:01.587Z,0.00
2019-04-23T01:52:01.777Z,0.00
2019-04-23T01:53:00.740Z,0.00
2019-04-23T01:53:56.660Z,0.00
2019-04-23T01:55:00.882Z,0.00
2019-04-23T01:56:03.114Z,0.00
2019-04-23T01:56:56.263Z,0.00
2019-04-23T01:58:07.882Z,0.00
2019-04-23T01:59:00.263Z,0.00
2019-04-23T02:00:01.600Z,0.00
2019-04-23T02:00:57.752Z,0.00
2019-04-23T02:01:58.825Z,0.00
2019-04-23T02:04:03.604Z,0.00
2019-04-23T02:05:05.979Z,0.00
2019-04-23T02:06:03.297Z,0.00
2019-04-23T02:06:58.009Z,0.00
2019-04-23T02:08:58.565Z,0.00
2019-04-23T02:11:04.763Z,0.00
2019-04-23T02:11:59.097Z,0.00
2019-04-23T02:13:02.245Z,0.00
2019-04-23T02:14:14.306Z,0.00
2019-04-23T02:15:10.234Z,0.00
2019-04-23T02:16:17.526Z,0.00
2019-04-23T02:17:01.296Z,0.00
2019-04-23T02:18:08.102Z,0.00
2019-04-23T02:20:02.009Z,0.00
2019-04-23T02:21:10.277Z,0.00
2019-04-23T02:21:57.660Z,0.00
2019-04-23T02:23:04.413Z,0.00
2019-04-23T02:23:55.624Z,0.00
2019-04-23T02:25:09.514Z,0.00
2019-04-23T02:25:58.753Z,0.00
2019-04-23T02:26:57.579Z,0.00
2019-04-23T02:29:03.681Z,0.00
2019-04-23T02:32:01.456Z,0.00
2019-04-23T02:33:20.146Z,0.00
2019-04-23T02:34:18.930Z,0.00
2019-04-23T02:35:11.726Z,0.00
2019-04-23T02:36:02.497Z,0.00
2019-04-23T02:37:03.852Z,0.00
2019-04-23T02:38:15.781Z,0.00
2019-04-23T02:38:56.331Z,0.00
2019-04-23T02:41:20.223Z,0.00
2019-04-23T02:42:22.945Z,0.00
2019-04-23T02:44:15.212Z,0.00
2019-04-23T02:45:02.729Z,0.00
2019-04-23T02:47:15.486Z,0.00
2019-04-23T02:48:11.044Z,0.00
2019-04-23T02:49:07.103Z,0.00
2019-04-23T02:50:53.662Z,0.00
2019-04-23T02:52:10.529Z,0.00
2019-04-23T02:53:05.229Z,0.00
2019-04-23T02:56:12.173Z,0.00
2019-04-23T02:57:01.292Z,0.00
2019-04-23T02:59:10.851Z,0.00
2019-04-23T03:01:21.630Z,0.00
2019-04-23T03:02:14.833Z,0.00
2019-04-23T03:04:10.388Z,0.00
2019-04-23T03:05:01.905Z,0.00
2019-04-23T03:07:15.937Z,0.00
2019-04-23T03:08:18.508Z,0.00
2019-04-23T03:09:07.105Z,0.00
2019-04-23T03:11:08.131Z,0.00
2019-04-23T03:12:12.014Z,0.00
2019-04-23T03:13:09.723Z,0.00
2019-04-23T03:14:18.546Z,0.00
2019-04-23T03:15:11.214Z,0.00
2019-04-23T03:17:03.371Z,0.00
2019-04-23T03:19:02.560Z,0.00
2019-04-23T03:20:08.315Z,0.00
2019-04-23T03:22:01.463Z,0.00
2019-04-23T03:23:29.125Z,0.00
2019-04-23T03:24:11.058Z,0.00
2019-04-23T03:25:07.262Z,0.00
2019-04-23T03:26:08.555Z,0.00
2019-04-23T03:28:11.010Z,0.00
2019-04-23T03:30:09.117Z,0.00
2019-04-23T03:35:09.052Z,0.00
2019-04-23T03:38:30.089Z,0.00
2019-04-23T03:38:57.823Z,0.00
2019-04-23T03:41:21.334Z,0.00
2019-04-23T03:43:06.672Z,0.00
2019-04-23T03:43:58.699Z,0.00
2019-04-23T03:45:17.595Z,0.00
2019-04-23T03:46:16.167Z,5.62
2019-04-23T03:47:06.653Z,5.62
2019-04-23T03:48:08.535Z,5.62
2019-04-23T03:49:14.973Z,5.62
2019-04-23T03:50:05.211Z,5.62
2019-04-23T03:51:17.221Z,5.62
2019-04-23T03:52:14.239Z,5.62
2019-04-23T03:53:27.331Z,5.62
2019-04-23T03:55:03.385Z,11.25
2019-04-23T03:56:12.462Z,11.25
2019-04-23T03:57:13.903Z,11.25
2019-04-23T03:58:02.364Z,11.25
2019-04-23T04:01:07.643Z,16.88
2019-04-23T04:02:34.033Z,16.88
2019-04-23T04:03:10.393Z,16.88
2019-04-23T04:05:03.938Z,22.50
2019-04-23T04:06:09.143Z,22.50
2019-04-23T04:07:15.499Z,22.50
2019-04-23T04:12:07.817Z,33.75
2019-04-23T04:13:24.346Z,33.75
2019-04-23T04:14:12.556Z,33.75
2019-04-23T04:15:06.019Z,39.38
2019-04-23T04:16:05.025Z,39.38
2019-04-23T04:19:09.517Z,45.00
2019-04-23T04:20:10.531Z,45.00
2019-04-23T04:21:08.677Z,50.62
2019-04-23T04:22:16.362Z,50.62
2019-04-23T04:23:19.557Z,56.25
2019-04-23T04:24:11.369Z,56.25
2019-04-23T04:26:04.643Z,61.88
2019-04-23T04:27:06.058Z,67.50
2019-04-23T04:28:17.719Z,67.50
2019-04-23T04:29:23.004Z,67.50
2019-04-23T04:32:00.992Z,78.75
2019-04-23T04:33:05.914Z,84.38
2019-04-23T04:34:21.426Z,84.38
2019-04-23T04:39:19.768Z,101.25
2019-04-23T04:40:10.950Z,101.25
2019-04-23T04:42:06.158Z,106.88
2019-04-23T04:43:13.550Z,112.50
2019-04-23T04:44:17.279Z,112.50
2019-04-23T04:45:14.108Z,118.12
2019-04-23T04:46:14.924Z,118.12
2019-04-23T04:46:59.261Z,123.75
2019-04-23T04:48:00.742Z,129.38
2019-04-23T04:49:05.556Z,135.00
2019-04-23T04:49:59.612Z,135.00
2019-04-23T04:51:15.927Z,135.00
2019-04-23T04:54:00.982Z,140.62
2019-04-23T04:55:06.802Z,146.25
2019-04-23T04:56:22.407Z,146.25
2019-04-23T04:57:00.088Z,146.25
2019-04-23T04:57:58.613Z,146.25
2019-04-23T04:59:07.687Z,151.88
2019-04-23T05:01:08.329Z,157.50
2019-04-23T05:02:08.645Z,163.12
2019-04-23T05:03:59.938Z,168.75
2019-04-23T05:05:29.767Z,174.38
2019-04-23T05:09:11.723Z,196.88
2019-04-23T05:11:11.264Z,264.38
2019-04-23T05:12:18.455Z,348.75
2019-04-23T05:13:27.542Z,388.12
2019-04-23T05:14:04.260Z,405.00
2019-04-23T05:16:00.533Z,466.88
2019-04-23T05:17:24.096Z,455.62
2019-04-23T05:18:08.343Z,472.50
2019-04-23T05:19:16.122Z,500.62
2019-04-23T05:19:57.450Z,511.88
2019-04-23T05:21:06.106Z,511.88
2019-04-23T05:23:06.047Z,573.75
2019-04-23T05:24:55.433Z,585.00
2019-04-23T05:25:58.052Z,607.50
2019-04-23T05:27:01.046Z,618.75
2019-04-23T05:28:08.171Z,601.88
2019-04-23T05:29:00.122Z,590.62
2019-04-23T05:30:02.923Z,601.88
2019-04-23T05:31:00.101Z,596.25
2019-04-23T05:31:55.630Z,630.00
2019-04-23T05:33:04.309Z,658.12
2019-04-23T05:34:01.479Z,663.75
2019-04-23T05:35:00.589Z,697.50
2019-04-23T05:38:59.424Z,731.25
2019-04-23T05:39:54.569Z,725.62
2019-04-23T05:41:03.909Z,736.88
2019-04-23T05:41:55.355Z,748.12
2019-04-23T05:42:58.410Z,714.38
2019-04-23T05:44:02.322Z,540.00
2019-04-23T05:44:56.625Z,421.88
2019-04-23T05:45:55.212Z,315.00
2019-04-23T05:47:11.518Z,298.12
2019-04-23T05:48:06.742Z,298.12
2019-04-23T05:48:59.853Z,298.12
2019-04-23T05:50:04.944Z,298.12
2019-04-23T05:52:01.810Z,303.75
2019-04-23T05:53:01.373Z,309.38
2019-04-23T05:55:01.644Z,326.25
2019-04-23T05:56:55.377Z,517.50
2019-04-23T05:57:44.575Z,911.25
2019-04-23T05:59:02.822Z,1333.12
2019-04-23T05:59:54.827Z,1755.00
2019-04-23T06:01:11.409Z,2030.62
2019-04-23T06:01:57.246Z,1884.38
2019-04-23T06:04:03.338Z,945.00
2019-04-23T06:04:58.533Z,815.62
2019-04-23T06:07:08.388Z,860.62
2019-04-23T06:07:57.835Z,855.00
2019-04-23T06:08:58.443Z,849.38
2019-04-23T06:09:59.891Z,849.38
2019-04-23T06:11:02.232Z,832.50
2019-04-23T06:13:02.976Z,804.38
2019-04-23T06:14:11.799Z,838.12
2019-04-23T06:15:53.095Z,798.75
2019-04-23T06:17:03.759Z,826.88
2019-04-23T06:18:01.806Z,804.38
2019-04-23T06:19:05.403Z,866.25
2019-04-23T06:20:01.074Z,939.38
2019-04-23T06:21:02.509Z,984.38
2019-04-23T06:22:15.434Z,995.62
2019-04-23T06:23:01.976Z,1068.75
2019-04-23T06:23:58.266Z,1203.75
2019-04-23T06:27:05.260Z,1316.25
2019-04-23T06:28:01.570Z,1321.88
2019-04-23T06:28:57.411Z,1350.00
2019-04-23T06:29:59.363Z,1395.00
2019-04-23T06:31:54.167Z,1445.62
2019-04-23T06:32:59.564Z,1473.75
2019-04-23T06:33:59.176Z,1535.62
2019-04-23T06:34:52.876Z,1507.50
2019-04-23T06:35:57.263Z,1541.25
2019-04-23T06:36:58.985Z,1563.75
2019-04-23T06:39:57.025Z,1552.50
2019-04-23T06:40:54.298Z,1563.75
2019-04-23T06:41:55.057Z,1620.00
2019-04-23T06:42:57.921Z,1558.12
2019-04-23T06:44:01.962Z,1535.62
2019-04-23T06:44:57.638Z,1524.38
2019-04-23T06:45:49.753Z,1642.50
2019-04-23T06:46:57.347Z,1558.12
2019-04-23T06:48:01.865Z,1642.50
2019-04-23T06:48:57.178Z,1693.12
2019-04-23T06:49:55.361Z,1760.62
2019-04-23T06:51:00.774Z,1665.00
2019-04-23T06:52:15.045Z,1670.62
2019-04-23T06:52:50.060Z,1693.12
2019-04-23T06:55:01.481Z,1366.88
2019-04-23T06:56:02.089Z,1378.12
2019-04-23T06:58:00.716Z,1406.25
2019-04-23T06:59:12.355Z,1816.88
2019-04-23T06:59:55.087Z,1822.50
2019-04-23T07:00:58.718Z,1333.12
2019-04-23T07:02:00.661Z,1721.25
2019-04-23T07:02:54.873Z,1794.38
2019-04-23T07:04:00.283Z,1665.00
2019-04-23T07:06:03.675Z,1665.00
2019-04-23T07:07:19.167Z,1366.88
2019-04-23T07:07:59.327Z,1586.25
2019-04-23T07:09:10.593Z,1918.12
2019-04-23T07:09:56.132Z,1636.88
2019-04-23T07:11:04.771Z,1968.75
2019-04-23T07:11:47.941Z,1603.12
2019-04-23T07:12:58.744Z,1951.88
2019-04-23T07:13:55.767Z,1771.88
2019-04-23T07:14:59.582Z,2137.50
2019-04-23T07:15:53.448Z,2041.88
2019-04-23T07:16:52.607Z,1968.75
2019-04-23T07:17:55.512Z,2086.88
2019-04-23T07:18:59.116Z,1850.62
2019-04-23T07:19:58.089Z,2131.88
2019-04-23T07:21:00.661Z,2053.12
2019-04-23T07:22:04.272Z,2013.75
2019-04-23T07:22:56.789Z,2131.88
2019-04-23T07:24:02.352Z,1884.38
2019-04-23T07:24:54.657Z,2098.12
2019-04-23T07:25:57.844Z,2205.00
2019-04-23T07:26:45.291Z,2244.38
2019-04-23T07:27:58.507Z,2210.62
2019-04-23T07:29:14.885Z,2137.50
2019-04-23T07:30:03.300Z,2171.25
2019-04-23T07:31:00.009Z,2250.00
2019-04-23T07:31:59.056Z,2266.88
2019-04-23T07:32:56.643Z,2266.88
2019-04-23T07:33:55.822Z,2266.88
2019-04-23T07:35:02.454Z,2244.38
2019-04-23T07:35:57.858Z,2266.88
2019-04-23T07:36:54.655Z,2306.25
2019-04-23T07:39:01.879Z,2283.75
2019-04-23T07:40:12.965Z,2295.00
2019-04-23T07:40:57.389Z,2266.88
2019-04-23T07:42:03.091Z,2340.00
2019-04-23T07:43:00.031Z,2418.75
2019-04-23T07:44:56.671Z,2328.75
2019-04-23T07:46:06.444Z,2418.75
2019-04-23T07:48:01.572Z,2401.88
2019-04-23T07:48:56.452Z,2418.75
2019-04-23T07:50:11.067Z,2379.38
2019-04-23T07:50:55.089Z,2458.12
2019-04-23T07:52:06.257Z,2553.75
2019-04-23T07:54:06.000Z,2503.12
2019-04-23T07:55:02.951Z,2593.12
2019-04-23T07:56:05.790Z,2542.50
2019-04-23T07:57:02.602Z,2520.00
2019-04-23T07:58:00.722Z,2565.00
2019-04-23T07:58:54.384Z,2598.75
2019-04-23T08:00:00.748Z,2598.75
2019-04-23T08:00:49.031Z,2598.75
2019-04-23T08:01:57.453Z,2542.50
2019-04-23T08:03:01.197Z,2593.12
2019-04-23T08:03:57.645Z,2722.50
2019-04-23T08:05:00.871Z,2660.62
2019-04-23T08:06:06.820Z,2565.00
2019-04-23T08:07:00.747Z,2604.38
2019-04-23T08:07:55.831Z,2700.00
2019-04-23T08:08:56.852Z,2745.00
2019-04-23T08:10:00.502Z,2823.75
2019-04-23T08:11:17.939Z,2790.00
2019-04-23T08:11:56.246Z,2700.00
2019-04-23T08:13:00.984Z,2722.50
2019-04-23T08:14:00.445Z,2778.75
2019-04-23T08:15:57.422Z,2767.50
2019-04-23T08:16:53.783Z,2413.12
2019-04-23T08:17:58.838Z,1732.50
2019-04-23T08:18:55.690Z,1192.50
2019-04-23T08:20:57.159Z,1085.62
2019-04-23T08:22:04.637Z,1085.62
2019-04-23T08:22:53.543Z,1068.75
2019-04-23T08:26:02.407Z,984.38
2019-04-23T08:26:59.724Z,973.12
2019-04-23T08:28:01.287Z,978.75
2019-04-23T08:29:06.413Z,990.00
2019-04-23T08:29:50.858Z,978.75
2019-04-23T08:30:53.784Z,973.12
2019-04-23T08:32:12.046Z,945.00
2019-04-23T08:32:57.090Z,883.12
2019-04-23T08:34:09.153Z,849.38
2019-04-23T08:35:10.583Z,855.00
2019-04-23T08:35:58.990Z,849.38
2019-04-23T08:37:03.181Z,849.38
2019-04-23T08:38:12.386Z,849.38
2019-04-23T08:38:50.557Z,849.38
2019-04-23T08:40:07.871Z,855.00
2019-04-23T08:41:04.221Z,849.38
2019-04-23T08:42:03.617Z,855.00
2019-04-23T08:42:58.518Z,860.62
2019-04-23T08:44:00.428Z,860.62
2019-04-23T08:45:03.126Z,860.62
2019-04-23T08:45:53.082Z,866.25
2019-04-23T08:47:10.377Z,871.88
2019-04-23T08:48:00.738Z,928.12
2019-04-23T08:48:58.691Z,1035.00
2019-04-23T08:50:50.272Z,1102.50
2019-04-23T08:52:03.751Z,1119.38
2019-04-23T08:53:03.774Z,1170.00
2019-04-23T08:54:01.433Z,1181.25
2019-04-23T08:55:08.374Z,1186.88
2019-04-23T08:57:51.132Z,1203.75
2019-04-23T08:59:05.398Z,1231.88
2019-04-23T09:02:08.555Z,1271.25
2019-04-23T09:03:03.050Z,1265.62
2019-04-23T09:03:53.541Z,1243.12
2019-04-23T09:06:53.125Z,1237.50
2019-04-23T09:08:04.035Z,1209.38
2019-04-23T09:08:50.324Z,1220.62
2019-04-23T09:09:58.981Z,1243.12
2019-04-23T09:11:04.775Z,1220.62
2019-04-23T09:11:54.335Z,1231.88
2019-04-23T09:13:10.116Z,1248.75
2019-04-23T09:15:00.849Z,1383.75
2019-04-23T09:15:55.479Z,1406.25
2019-04-23T09:17:03.403Z,1428.75
2019-04-23T09:17:57.932Z,1456.88
2019-04-23T09:18:52.801Z,1411.88
2019-04-23T09:20:18.745Z,1350.00
2019-04-23T09:20:52.979Z,1327.50
2019-04-23T09:22:01.985Z,1327.50
2019-04-23T09:22:50.350Z,1282.50
2019-04-23T09:23:53.767Z,1147.50
2019-04-23T09:24:55.480Z,1051.88
2019-04-23T09:25:55.886Z,1057.50
2019-04-23T09:26:58.626Z,1057.50
2019-04-23T09:27:53.109Z,1057.50
2019-04-23T09:28:58.024Z,1063.12
2019-04-23T09:30:00.093Z,1057.50
2019-04-23T09:30:55.275Z,1063.12
2019-04-23T09:32:15.095Z,1063.12
2019-04-23T09:32:51.957Z,1063.12
2019-04-23T09:34:58.861Z,1074.38
2019-04-23T09:35:52.746Z,1080.00
2019-04-23T09:37:00.157Z,1096.88
2019-04-23T09:37:52.634Z,1125.00
2019-04-23T09:38:59.871Z,1158.75
2019-04-23T09:39:59.559Z,1473.75
2019-04-23T09:41:55.384Z,2885.62
2019-04-23T09:43:09.279Z,3296.25
2019-04-23T09:43:53.911Z,3301.88
2019-04-23T09:44:58.440Z,3240.00
2019-04-23T09:45:57.481Z,3279.38
2019-04-23T09:47:00.856Z,3318.75
2019-04-23T09:47:58.771Z,3403.12
2019-04-23T09:48:59.294Z,3391.88
2019-04-23T09:49:58.951Z,3397.50
2019-04-23T09:50:53.810Z,3414.38
2019-04-23T09:52:00.772Z,3487.50
2019-04-23T09:53:06.383Z,3442.50
2019-04-23T09:53:55.609Z,3391.88
2019-04-23T09:55:06.086Z,3459.38
2019-04-23T09:55:46.833Z,3442.50
2019-04-23T09:56:52.676Z,3352.50
2019-04-23T09:58:00.473Z,3420.00
2019-04-23T09:59:07.423Z,3273.75
2019-04-23T10:00:07.554Z,3088.12
2019-04-23T10:00:54.923Z,3256.88
2019-04-23T10:01:48.329Z,3504.38
2019-04-23T10:02:45.694Z,3375.00
2019-04-23T10:03:41.742Z,3425.62
2019-04-23T10:04:39.864Z,3526.88
2019-04-23T10:05:37.268Z,3414.38
2019-04-23T10:06:32.138Z,3166.88
2019-04-23T10:07:39.710Z,3200.62
2019-04-23T10:08:32.137Z,3465.00
2019-04-23T10:09:27.664Z,3470.62
2019-04-23T10:10:26.174Z,3436.88
2019-04-23T10:11:26.188Z,3363.75
2019-04-23T10:12:26.313Z,3217.50
2019-04-23T10:13:26.192Z,3217.50
2019-04-23T10:14:26.150Z,3223.12
2019-04-23T10:15:31.409Z,3346.88
2019-04-23T10:16:30.223Z,3183.75
2019-04-23T10:17:28.395Z,2902.50
2019-04-23T10:18:26.833Z,3037.50
2019-04-23T10:19:26.737Z,3318.75
2019-04-23T10:20:26.769Z,3425.62
2019-04-23T10:21:25.827Z,3358.12
2019-04-23T10:22:27.163Z,3313.12
2019-04-23T10:23:27.197Z,3234.38
2019-04-23T10:24:27.541Z,3279.38
2019-04-23T10:25:25.845Z,3459.38
2019-04-23T10:26:26.050Z,3436.88
2019-04-23T10:27:27.235Z,3290.62
2019-04-23T10:28:26.565Z,3200.62
2019-04-23T10:29:25.839Z,3245.62
2019-04-23T10:30:26.892Z,3273.75
2019-04-23T10:31:27.033Z,3296.25
2019-04-23T10:32:27.235Z,3358.12
2019-04-23T10:33:25.727Z,3391.88
2019-04-23T10:34:27.313Z,3296.25
2019-04-23T10:35:39.435Z,3268.12
2019-04-23T10:36:29.515Z,3352.50
2019-04-23T10:37:36.754Z,3335.62
2019-04-23T10:38:28.181Z,3245.62
2019-04-23T10:39:30.408Z,3285.00
2019-04-23T10:40:32.543Z,3256.88
2019-04-23T10:41:28.038Z,3234.38
2019-04-23T10:42:27.912Z,3330.00
2019-04-23T10:43:28.289Z,3403.12
2019-04-23T10:44:25.725Z,3380.62
2019-04-23T10:45:41.378Z,3318.75
2019-04-23T10:46:48.841Z,3352.50
2019-04-23T10:47:59.017Z,3346.88
2019-04-23T10:49:00.668Z,3211.88
2019-04-23T10:50:05.536Z,3183.75
2019-04-23T10:50:51.277Z,3296.25
2019-04-23T10:51:59.755Z,3363.75
2019-04-23T10:53:03.806Z,3324.38
2019-04-23T10:53:56.247Z,3375.00
2019-04-23T10:54:57.626Z,3268.12
2019-04-23T10:55:54.105Z,3285.00
2019-04-23T10:56:53.289Z,3296.25
2019-04-23T10:57:54.770Z,3178.12
2019-04-23T10:58:54.179Z,2998.12
2019-04-23T10:59:48.844Z,3071.25
2019-04-23T11:00:53.409Z,3234.38
2019-04-23T11:02:16.754Z,3324.38
2019-04-23T11:02:58.835Z,3403.12
2019-04-23T11:04:10.049Z,3161.25
2019-04-23T11:05:00.029Z,3307.50
2019-04-23T11:05:59.735Z,939.38
2019-04-23T11:06:49.924Z,3285.00
2019-04-23T11:07:42.297Z,3273.75
2019-04-23T11:08:48.267Z,3211.88
2019-04-23T11:09:59.321Z,3268.12
2019-04-23T11:10:57.900Z,3228.75
2019-04-23T11:12:03.792Z,3161.25
2019-04-23T11:13:12.182Z,3296.25
2019-04-23T11:14:05.409Z,3420.00
2019-04-23T11:14:57.818Z,3155.62
2019-04-23T11:16:11.321Z,3155.62
2019-04-23T11:17:47.912Z,3105.00
2019-04-23T11:20:06.886Z,2525.62
2019-04-23T11:20:54.347Z,2981.25
2019-04-23T11:22:09.894Z,3211.88
2019-04-23T11:24:02.053Z,3071.25
2019-04-23T11:25:21.652Z,3268.12
2019-04-23T11:25:50.410Z,3341.25
2019-04-23T11:26:55.781Z,3285.00
2019-04-23T11:27:59.709Z,3172.50
2019-04-23T11:28:55.435Z,2941.88
2019-04-23T11:30:01.833Z,2885.62
2019-04-23T11:30:51.267Z,3020.62
2019-04-23T11:32:31.733Z,3127.50
2019-04-23T11:33:03.444Z,3121.88
2019-04-23T11:34:01.787Z,3155.62
2019-04-23T11:37:03.994Z,1029.38
2019-04-23T11:38:35.248Z,1012.50
2019-04-23T11:40:48.990Z,3228.75
2019-04-23T11:41:59.977Z,2975.62
2019-04-23T11:42:57.901Z,3020.62
2019-04-23T11:43:54.941Z,2896.88
2019-04-23T11:44:56.564Z,2812.50
2019-04-23T11:46:08.141Z,2930.62
2019-04-23T11:47:07.145Z,1901.25
2019-04-23T11:48:22.004Z,2925.00
2019-04-23T11:49:20.144Z,2705.62
2019-04-23T11:49:59.487Z,3290.62
2019-04-23T11:51:32.298Z,3127.50
2019-04-23T11:52:05.609Z,3065.62
2019-04-23T11:53:55.889Z,1861.88
2019-04-23T11:55:00.804Z,545.62
2019-04-23T11:55:58.876Z,461.25
2019-04-23T11:58:16.640Z,568.12
2019-04-23T11:58:59.686Z,2868.75
2019-04-23T11:59:52.840Z,2964.38
2019-04-23T12:01:02.177Z,2941.88
2019-04-23T12:02:54.232Z,787.50
2019-04-23T12:04:05.132Z,596.25
2019-04-23T12:05:00.851Z,1445.62
2019-04-23T12:05:58.253Z,2818.12
2019-04-23T12:07:06.203Z,770.62
2019-04-23T12:08:01.066Z,759.38
2019-04-23T12:08:49.180Z,2953.12
2019-04-23T12:09:55.101Z,2941.88
2019-04-23T12:12:53.689Z,2790.00
2019-04-23T12:14:03.884Z,2823.75
2019-04-23T12:15:52.912Z,2908.12
2019-04-23T12:17:08.201Z,2941.88
2019-04-23T12:17:50.776Z,2806.88
2019-04-23T12:19:14.437Z,2863.12
2019-04-23T12:20:48.793Z,2953.12
2019-04-23T12:22:01.441Z,2756.25
2019-04-23T12:23:03.921Z,2874.38
2019-04-23T12:24:04.610Z,2092.50
2019-04-23T12:25:58.641Z,1051.88
2019-04-23T12:27:42.019Z,871.88
2019-04-23T12:30:50.632Z,871.88
2019-04-23T12:32:01.923Z,1006.88
2019-04-23T12:33:59.175Z,973.12
2019-04-23T12:35:01.449Z,1012.50
2019-04-23T12:35:51.945Z,967.50
2019-04-23T12:36:56.849Z,826.88
2019-04-23T12:39:00.497Z,916.88
2019-04-23T12:40:01.743Z,759.38
2019-04-23T12:40:49.249Z,759.38
2019-04-23T12:42:13.618Z,720.00
2019-04-23T12:43:51.649Z,776.25
2019-04-23T12:44:56.853Z,770.62
2019-04-23T12:45:46.862Z,703.12
2019-04-23T12:46:57.557Z,624.38
2019-04-23T12:47:58.257Z,635.62
2019-04-23T12:49:03.300Z,641.25
2019-04-23T12:51:55.990Z,753.75
2019-04-23T12:52:51.019Z,798.75
2019-04-23T12:53:50.645Z,658.12
2019-04-23T12:55:08.614Z,607.50
2019-04-23T12:55:50.518Z,618.75
2019-04-23T12:57:05.352Z,691.88
2019-04-23T12:58:09.898Z,686.25
2019-04-23T12:58:44.997Z,669.38
2019-04-23T12:59:58.313Z,686.25
2019-04-23T13:00:46.036Z,855.00
2019-04-23T13:01:57.598Z,1040.62
2019-04-23T13:02:48.679Z,1046.25
2019-04-23T13:03:45.596Z,883.12
2019-04-23T13:04:52.463Z,815.62
2019-04-23T13:05:42.209Z,815.62
2019-04-23T13:06:50.954Z,798.75
2019-04-23T13:07:55.471Z,742.50
2019-04-23T13:08:51.540Z,697.50
2019-04-23T13:10:50.130Z,635.62
2019-04-23T13:11:50.093Z,669.38
2019-04-23T13:13:56.794Z,815.62
2019-04-23T13:14:57.655Z,838.12
2019-04-23T13:16:12.365Z,815.62
2019-04-23T13:17:00.756Z,793.12
2019-04-23T13:18:50.037Z,815.62
2019-04-23T13:20:15.074Z,798.75
2019-04-23T13:20:41.496Z,810.00
2019-04-23T13:22:09.635Z,815.62
2019-04-23T13:22:56.172Z,821.25
2019-04-23T13:23:51.129Z,826.88
2019-04-23T13:24:54.335Z,798.75
2019-04-23T13:25:54.234Z,821.25
2019-04-23T13:26:56.062Z,843.75
2019-04-23T13:28:58.156Z,765.00
2019-04-23T13:30:01.994Z,798.75
2019-04-23T13:30:59.034Z,787.50
2019-04-23T13:31:50.229Z,787.50
2019-04-23T13:33:03.126Z,736.88
2019-04-23T13:34:06.993Z,680.62
2019-04-23T13:35:02.907Z,669.38
2019-04-23T13:36:01.106Z,703.12
2019-04-23T13:36:51.444Z,725.62
2019-04-23T13:38:19.545Z,759.38
2019-04-23T13:38:47.005Z,787.50
2019-04-23T13:39:52.959Z,781.88
2019-04-23T13:40:57.122Z,787.50
2019-04-23T13:41:53.934Z,759.38
2019-04-23T13:43:06.949Z,697.50
2019-04-23T13:44:57.517Z,630.00
2019-04-23T13:46:54.485Z,545.62
2019-04-23T13:48:49.177Z,556.88
2019-04-23T13:50:00.264Z,573.75
2019-04-23T13:52:02.983Z,472.50
2019-04-23T13:53:07.877Z,483.75
2019-04-23T13:54:08.196Z,478.12
2019-04-23T13:55:45.503Z,405.00
2019-04-23T13:57:23.703Z,433.12
2019-04-23T13:58:55.010Z,461.25
2019-04-23T13:59:56.123Z,450.00
2019-04-23T14:01:01.361Z,382.50
2019-04-23T14:01:46.688Z,326.25
2019-04-23T14:02:49.240Z,320.62
2019-04-23T14:04:00.119Z,348.75
2019-04-23T14:05:04.513Z,388.12
2019-04-23T14:05:49.521Z,444.38
2019-04-23T14:07:17.332Z,511.88
2019-04-23T14:07:56.587Z,517.50
2019-04-23T14:10:04.638Z,495.00
2019-04-23T14:11:11.037Z,450.00
2019-04-23T14:11:45.172Z,388.12
2019-04-23T14:13:12.463Z,354.38
2019-04-23T14:14:59.988Z,416.25
2019-04-23T14:17:16.581Z,500.62
2019-04-23T14:18:11.517Z,511.88
2019-04-23T14:18:58.506Z,495.00
2019-04-23T14:19:53.769Z,511.88
2019-04-23T14:20:55.123Z,540.00
2019-04-23T14:21:51.482Z,534.38
2019-04-23T14:23:09.368Z,495.00
2019-04-23T14:25:02.534Z,393.75
2019-04-23T14:26:46.319Z,365.62
2019-04-23T14:27:56.525Z,360.00
2019-04-23T14:30:09.287Z,320.62
2019-04-23T14:31:53.321Z,354.38
2019-04-23T14:32:53.723Z,337.50
2019-04-23T14:34:01.297Z,303.75
2019-04-23T14:35:04.812Z,230.62
2019-04-23T14:35:50.899Z,185.62
2019-04-23T14:36:57.575Z,174.38
2019-04-23T14:38:09.485Z,163.12
2019-04-23T14:38:57.311Z,174.38
2019-04-23T14:39:52.894Z,174.38
2019-04-23T14:41:05.368Z,163.12
2019-04-23T14:41:54.245Z,157.50
2019-04-23T14:43:04.349Z,163.12
2019-04-23T14:44:01.818Z,180.00
2019-04-23T14:45:08.114Z,196.88
2019-04-23T14:46:27.224Z,185.62
2019-04-23T14:47:00.700Z,168.75
2019-04-23T14:48:02.813Z,168.75
2019-04-23T14:49:05.473Z,174.38
2019-04-23T14:50:17.351Z,180.00
2019-04-23T14:50:54.566Z,191.25
2019-04-23T14:51:52.943Z,202.50
2019-04-23T14:52:57.115Z,196.88
2019-04-23T14:53:48.446Z,196.88
2019-04-23T14:55:35.409Z,196.88
2019-04-23T14:56:52.266Z,191.25
2019-04-23T14:58:05.552Z,191.25
2019-04-23T14:59:01.516Z,196.88
2019-04-23T14:59:59.127Z,213.75